sensor_id;sensor_type;location;lat;lon;timestamp;P1;durP1;ratioP1;P2;durP2;ratioP2
75356;SDS011;63946;51.986;5.930;2024-01-15T05:45:47;6.10;;;1.63;;
75356;SDS011;63946;51.986;5.930;2024-01-15T05:48:18;2.78;;;1.05;;
75356;SDS011;63946;51.986;5.930;2024-01-15T05:50:47;6.35;;;1.05;;
75356;SDS011;63946;51.986;5.930;2024-01-15T05:53:16;4.25;;;1.00;;
75356;SDS011;63946;51.986;5.930;2024-01-15T05:55:44;1.88;;;1.00;;
75356;SDS011;63946;51.986;5.930;2024-01-15T05:58:13;2.90;;;0.90;;
75356;SDS011;63946;51.986;5.930;2024-01-15T06:00:42;3.03;;;0.85;;
75356;SDS011;63946;51.986;5.930;2024-01-15T06:03:11;3.88;;;0.98;;
75356;SDS011;63946;51.986;5.930;2024-01-15T06:05:40;2.22;;;0.98;;
75356;SDS011;63946;51.986;5.930;2024-01-15T06:08:09;2.92;;;0.85;;
75356;SDS011;63946;51.986;5.930;2024-01-15T06:10:38;1.60;;;0.90;;
75356;SDS011;63946;51.986;5.930;2024-01-15T06:13:07;3.35;;;1.02;;
75356;SDS011;63946;51.986;5.930;2024-01-15T06:15:35;3.58;;;1.10;;
75356;SDS011;63946;51.986;5.930;2024-01-15T06:18:04;2.67;;;1.02;;
75356;SDS011;63946;51.986;5.930;2024-01-15T06:20:33;5.13;;;1.15;;
75356;SDS011;63946;51.986;5.930;2024-01-15T06:23:02;1.83;;;0.80;;
75356;SDS011;63946;51.986;5.930;2024-01-15T06:25:31;7.20;;;1.35;;
75356;SDS011;63946;51.986;5.930;2024-01-15T06:28:00;2.13;;;1.38;;
75356;SDS011;63946;51.986;5.930;2024-01-15T06:30:30;2.50;;;1.30;;
75356;SDS011;63946;51.986;5.930;2024-01-15T06:32:59;1.92;;;1.05;;
75356;SDS011;63946;51.986;5.930;2024-01-15T06:35:28;4.78;;;1.05;;
75356;SDS011;63946;51.986;5.930;2024-01-15T06:37:56;2.05;;;0.80;;
75356;SDS011;63946;51.986;5.930;2024-01-15T06:40:25;4.38;;;0.93;;
75356;SDS011;63946;51.986;5.930;2024-01-15T06:42:54;2.70;;;0.90;;
75356;SDS011;63946;51.986;5.930;2024-01-15T06:45:23;4.18;;;0.85;;
75356;SDS011;63946;51.986;5.930;2024-01-15T06:47:52;2.20;;;1.00;;
75356;SDS011;63946;51.986;5.930;2024-01-15T06:50:21;2.80;;;0.93;;
75356;SDS011;63946;51.986;5.930;2024-01-15T06:52:50;3.35;;;1.33;;
75356;SDS011;63946;51.986;5.930;2024-01-15T06:55:22;2.00;;;1.13;;
75356;SDS011;63946;51.986;5.930;2024-01-15T06:57:54;2.45;;;1.02;;
75356;SDS011;63946;51.986;5.930;2024-01-15T07:00:22;2.95;;;1.00;;
75356;SDS011;63946;51.986;5.930;2024-01-15T07:02:51;3.38;;;1.33;;
75356;SDS011;63946;51.986;5.930;2024-01-15T07:05:20;1.60;;;0.80;;
75356;SDS011;63946;51.986;5.930;2024-01-15T07:07:49;1.90;;;1.15;;
75356;SDS011;63946;51.986;5.930;2024-01-15T07:10:18;2.70;;;1.10;;
75356;SDS011;63946;51.986;5.930;2024-01-15T07:12:47;2.00;;;1.33;;
75356;SDS011;63946;51.986;5.930;2024-01-15T07:15:16;3.65;;;1.92;;
75356;SDS011;63946;51.986;5.930;2024-01-15T07:17:45;3.10;;;1.65;;
75356;SDS011;63946;51.986;5.930;2024-01-15T07:20:13;5.25;;;2.13;;
75356;SDS011;63946;51.986;5.930;2024-01-15T07:25:16;3.65;;;2.20;;
75356;SDS011;63946;51.986;5.930;2024-01-15T07:27:45;5.10;;;3.38;;
75356;SDS011;63946;51.986;5.930;2024-01-15T07:30:14;4.63;;;2.70;;
75356;SDS011;63946;51.986;5.930;2024-01-15T07:32:42;5.75;;;3.50;;
75356;SDS011;63946;51.986;5.930;2024-01-15T07:35:11;4.10;;;2.72;;
75356;SDS011;63946;51.986;5.930;2024-01-15T07:37:41;5.30;;;2.97;;
75356;SDS011;63946;51.986;5.930;2024-01-15T07:40:09;4.32;;;3.60;;
75356;SDS011;63946;51.986;5.930;2024-01-15T07:42:39;4.50;;;2.90;;
75356;SDS011;63946;51.986;5.930;2024-01-15T07:45:08;3.70;;;2.58;;
75356;SDS011;63946;51.986;5.930;2024-01-15T07:47:38;3.97;;;2.65;;
75356;SDS011;63946;51.986;5.930;2024-01-15T07:50:07;3.53;;;2.90;;
75356;SDS011;63946;51.986;5.930;2024-01-15T07:52:36;3.03;;;2.72;;
75356;SDS011;63946;51.986;5.930;2024-01-15T07:55:04;4.13;;;3.20;;
75356;SDS011;63946;51.986;5.930;2024-01-15T07:57:33;4.55;;;2.97;;
75356;SDS011;63946;51.986;5.930;2024-01-15T08:00:03;4.82;;;3.03;;
75356;SDS011;63946;51.986;5.930;2024-01-15T08:02:32;3.30;;;2.83;;
75356;SDS011;63946;51.986;5.930;2024-01-15T08:05:01;4.88;;;3.40;;
75356;SDS011;63946;51.986;5.930;2024-01-15T08:07:30;4.70;;;3.97;;
75356;SDS011;63946;51.986;5.930;2024-01-15T08:09:58;3.72;;;3.30;;
75356;SDS011;63946;51.986;5.930;2024-01-15T08:12:27;4.07;;;3.22;;
75356;SDS011;63946;51.986;5.930;2024-01-15T08:14:56;3.40;;;2.67;;
75356;SDS011;63946;51.986;5.930;2024-01-15T08:17:27;5.53;;;3.65;;
75356;SDS011;63946;51.986;5.930;2024-01-15T08:19:57;3.67;;;3.08;;
75356;SDS011;63946;51.986;5.930;2024-01-15T08:22:30;3.05;;;2.42;;
75356;SDS011;63946;51.986;5.930;2024-01-15T08:24:59;3.72;;;2.95;;
75356;SDS011;63946;51.986;5.930;2024-01-15T08:27:28;3.47;;;2.78;;
75356;SDS011;63946;51.986;5.930;2024-01-15T08:29:57;3.20;;;2.42;;
75356;SDS011;63946;51.986;5.930;2024-01-15T08:32:26;2.85;;;2.22;;
75356;SDS011;63946;51.986;5.930;2024-01-15T08:34:55;3.13;;;1.98;;
75356;SDS011;63946;51.986;5.930;2024-01-15T08:37:24;1.83;;;1.50;;
75356;SDS011;63946;51.986;5.930;2024-01-15T08:39:52;2.53;;;1.63;;
75356;SDS011;63946;51.986;5.930;2024-01-15T08:42:21;2.13;;;1.50;;
75356;SDS011;63946;51.986;5.930;2024-01-15T08:44:50;5.28;;;1.83;;
75356;SDS011;63946;51.986;5.930;2024-01-15T08:47:19;3.08;;;2.15;;
75356;SDS011;63946;51.986;5.930;2024-01-15T08:49:48;2.50;;;1.88;;
75356;SDS011;63946;51.986;5.930;2024-01-15T08:52:22;2.28;;;1.60;;
75356;SDS011;63946;51.986;5.930;2024-01-15T08:54:59;2.08;;;1.25;;
75356;SDS011;63946;51.986;5.930;2024-01-15T08:57:32;3.78;;;1.65;;
75356;SDS011;63946;51.986;5.930;2024-01-15T09:00:01;2.28;;;1.70;;
75356;SDS011;63946;51.986;5.930;2024-01-15T09:02:34;4.88;;;2.05;;
75356;SDS011;63946;51.986;5.930;2024-01-15T09:05:03;2.60;;;1.60;;
75356;SDS011;63946;51.986;5.930;2024-01-15T09:07:32;2.28;;;1.48;;
75356;SDS011;63946;51.986;5.930;2024-01-15T09:10:01;3.03;;;1.58;;
75356;SDS011;63946;51.986;5.930;2024-01-15T09:12:30;1.90;;;1.35;;
75356;SDS011;63946;51.986;5.930;2024-01-15T09:14:59;2.38;;;1.30;;
75356;SDS011;63946;51.986;5.930;2024-01-15T09:17:31;2.70;;;1.65;;
75356;SDS011;63946;51.986;5.930;2024-01-15T09:20:00;3.53;;;1.60;;
75356;SDS011;63946;51.986;5.930;2024-01-15T09:22:32;5.18;;;1.75;;
75356;SDS011;63946;51.986;5.930;2024-01-15T09:25:02;2.58;;;1.67;;
75356;SDS011;63946;51.986;5.930;2024-01-15T09:27:31;4.53;;;1.88;;
75356;SDS011;63946;51.986;5.930;2024-01-15T09:32:32;4.82;;;2.10;;
75356;SDS011;63946;51.986;5.930;2024-01-15T09:35:01;3.60;;;2.08;;
75356;SDS011;63946;51.986;5.930;2024-01-15T09:37:30;5.50;;;1.95;;
75356;SDS011;63946;51.986;5.930;2024-01-15T09:40:03;3.08;;;1.77;;
75356;SDS011;63946;51.986;5.930;2024-01-15T09:42:34;3.72;;;1.98;;
75356;SDS011;63946;51.986;5.930;2024-01-15T09:45:04;5.82;;;2.28;;
75356;SDS011;63946;51.986;5.930;2024-01-15T09:47:39;3.42;;;2.30;;
75356;SDS011;63946;51.986;5.930;2024-01-15T09:50:12;5.32;;;2.28;;
75356;SDS011;63946;51.986;5.930;2024-01-15T09:52:45;5.85;;;2.50;;
75356;SDS011;63946;51.986;5.930;2024-01-15T09:55:17;4.40;;;2.30;;
75356;SDS011;63946;51.986;5.930;2024-01-15T09:57:48;4.95;;;2.13;;
75356;SDS011;63946;51.986;5.930;2024-01-15T10:00:17;3.92;;;2.05;;
75356;SDS011;63946;51.986;5.930;2024-01-15T10:02:47;3.38;;;1.65;;
75356;SDS011;63946;51.986;5.930;2024-01-15T10:05:16;3.95;;;1.33;;
75356;SDS011;63946;51.986;5.930;2024-01-15T10:07:45;2.85;;;1.40;;
75356;SDS011;63946;51.986;5.930;2024-01-15T10:10:16;4.43;;;1.20;;
75356;SDS011;63946;51.986;5.930;2024-01-15T10:12:44;2.50;;;1.02;;
75356;SDS011;63946;51.986;5.930;2024-01-15T10:15:13;5.50;;;1.30;;
75356;SDS011;63946;51.986;5.930;2024-01-15T10:17:42;2.22;;;0.95;;
75356;SDS011;63946;51.986;5.930;2024-01-15T10:20:14;1.60;;;0.70;;
75356;SDS011;63946;51.986;5.930;2024-01-15T10:25:16;2.35;;;1.30;;
75356;SDS011;63946;51.986;5.930;2024-01-15T10:27:58;1.88;;;1.13;;
75356;SDS011;63946;51.986;5.930;2024-01-15T10:33:03;2.08;;;1.13;;
75356;SDS011;63946;51.986;5.930;2024-01-15T10:35:33;3.40;;;1.10;;
75356;SDS011;63946;51.986;5.930;2024-01-15T10:38:02;3.17;;;1.10;;
75356;SDS011;63946;51.986;5.930;2024-01-15T10:40:33;3.85;;;1.05;;
75356;SDS011;63946;51.986;5.930;2024-01-15T10:43:02;2.15;;;1.08;;
75356;SDS011;63946;51.986;5.930;2024-01-15T10:45:31;2.28;;;1.10;;
75356;SDS011;63946;51.986;5.930;2024-01-15T10:50:31;4.60;;;1.73;;
75356;SDS011;63946;51.986;5.930;2024-01-15T10:53:00;4.05;;;1.42;;
75356;SDS011;63946;51.986;5.930;2024-01-15T10:55:30;3.17;;;1.60;;
75356;SDS011;63946;51.986;5.930;2024-01-15T10:58:00;5.40;;;1.38;;
75356;SDS011;63946;51.986;5.930;2024-01-15T11:00:29;4.07;;;1.40;;
75356;SDS011;63946;51.986;5.930;2024-01-15T11:02:59;3.30;;;1.75;;
75356;SDS011;63946;51.986;5.930;2024-01-15T11:05:37;4.97;;;2.03;;
75356;SDS011;63946;51.986;5.930;2024-01-15T11:08:07;3.80;;;2.08;;
75356;SDS011;63946;51.986;5.930;2024-01-15T11:10:40;5.07;;;2.15;;
75356;SDS011;63946;51.986;5.930;2024-01-15T11:13:15;3.30;;;1.63;;
75356;SDS011;63946;51.986;5.930;2024-01-15T11:15:55;6.07;;;2.00;;
75356;SDS011;63946;51.986;5.930;2024-01-15T11:18:28;7.15;;;1.95;;
75356;SDS011;63946;51.986;5.930;2024-01-15T11:23:48;4.53;;;1.83;;
75356;SDS011;63946;51.986;5.930;2024-01-15T11:26:35;4.15;;;1.90;;
75356;SDS011;63946;51.986;5.930;2024-01-15T11:37:24;5.45;;;2.13;;
75356;SDS011;63946;51.986;5.930;2024-01-15T11:39:55;4.28;;;1.38;;
75356;SDS011;63946;51.986;5.930;2024-01-15T11:42:29;4.80;;;1.30;;
75356;SDS011;63946;51.986;5.930;2024-01-15T11:44:58;4.32;;;1.50;;
75356;SDS011;63946;51.986;5.930;2024-01-15T11:47:48;4.35;;;1.52;;
75356;SDS011;63946;51.986;5.930;2024-01-15T11:50:26;4.70;;;1.63;;
75356;SDS011;63946;51.986;5.930;2024-01-15T11:53:02;5.47;;;2.28;;
75356;SDS011;63946;51.986;5.930;2024-01-15T11:55:37;5.13;;;1.75;;
75356;SDS011;63946;51.986;5.930;2024-01-15T11:58:10;3.42;;;1.58;;
75356;SDS011;63946;51.986;5.930;2024-01-15T12:00:43;7.82;;;1.60;;
75356;SDS011;63946;51.986;5.930;2024-01-15T12:03:13;3.10;;;1.35;;
75356;SDS011;63946;51.986;5.930;2024-01-15T12:05:42;6.85;;;1.98;;
75356;SDS011;63946;51.986;5.930;2024-01-15T12:08:10;9.32;;;1.42;;
75356;SDS011;63946;51.986;5.930;2024-01-15T12:10:40;3.80;;;1.08;;
75356;SDS011;63946;51.986;5.930;2024-01-15T12:13:13;5.68;;;1.58;;
75356;SDS011;63946;51.986;5.930;2024-01-15T12:15:43;4.57;;;1.67;;
75356;SDS011;63946;51.986;5.930;2024-01-15T12:18:16;5.82;;;1.23;;
75356;SDS011;63946;51.986;5.930;2024-01-15T12:20:46;4.93;;;1.20;;
75356;SDS011;63946;51.986;5.930;2024-01-15T12:23:15;6.68;;;1.50;;
75356;SDS011;63946;51.986;5.930;2024-01-15T12:25:44;4.22;;;1.50;;
75356;SDS011;63946;51.986;5.930;2024-01-15T12:28:13;3.90;;;1.02;;
75356;SDS011;63946;51.986;5.930;2024-01-15T12:30:46;4.13;;;1.15;;
75356;SDS011;63946;51.986;5.930;2024-01-15T12:33:17;6.65;;;1.13;;
75356;SDS011;63946;51.986;5.930;2024-01-15T12:35:48;3.03;;;1.02;;
75356;SDS011;63946;51.986;5.930;2024-01-15T12:38:18;2.13;;;0.73;;
75356;SDS011;63946;51.986;5.930;2024-01-15T12:40:48;4.75;;;1.40;;
75356;SDS011;63946;51.986;5.930;2024-01-15T12:43:17;3.65;;;1.20;;
75356;SDS011;63946;51.986;5.930;2024-01-15T12:45:46;5.13;;;1.35;;
75356;SDS011;63946;51.986;5.930;2024-01-15T12:48:15;4.75;;;1.13;;
75356;SDS011;63946;51.986;5.930;2024-01-15T12:50:44;3.80;;;1.00;;
75356;SDS011;63946;51.986;5.930;2024-01-15T12:53:13;3.47;;;0.93;;
75356;SDS011;63946;51.986;5.930;2024-01-15T12:55:43;1.75;;;0.93;;
75356;SDS011;63946;51.986;5.930;2024-01-15T12:58:11;1.95;;;0.70;;
75356;SDS011;63946;51.986;5.930;2024-01-15T13:00:40;3.38;;;1.00;;
75356;SDS011;63946;51.986;5.930;2024-01-15T13:03:09;3.33;;;1.10;;
75356;SDS011;63946;51.986;5.930;2024-01-15T13:05:39;3.03;;;1.20;;
75356;SDS011;63946;51.986;5.930;2024-01-15T13:08:10;2.25;;;0.80;;
75356;SDS011;63946;51.986;5.930;2024-01-15T13:10:39;3.33;;;0.85;;
75356;SDS011;63946;51.986;5.930;2024-01-15T13:13:08;3.58;;;1.23;;
75356;SDS011;63946;51.986;5.930;2024-01-15T13:15:40;4.20;;;1.23;;
75356;SDS011;63946;51.986;5.930;2024-01-15T13:18:09;5.30;;;1.25;;
75356;SDS011;63946;51.986;5.930;2024-01-15T13:20:38;3.88;;;1.25;;
75356;SDS011;63946;51.986;5.930;2024-01-15T13:23:06;2.45;;;0.90;;
75356;SDS011;63946;51.986;5.930;2024-01-15T13:25:35;3.58;;;0.93;;
75356;SDS011;63946;51.986;5.930;2024-01-15T13:28:04;3.35;;;0.80;;
75356;SDS011;63946;51.986;5.930;2024-01-15T13:30:34;5.25;;;1.02;;
75356;SDS011;63946;51.986;5.930;2024-01-15T13:33:03;3.53;;;0.80;;
75356;SDS011;63946;51.986;5.930;2024-01-15T13:35:31;3.53;;;0.90;;
75356;SDS011;63946;51.986;5.930;2024-01-15T13:38:01;3.35;;;1.10;;
75356;SDS011;63946;51.986;5.930;2024-01-15T13:40:30;3.45;;;1.02;;
75356;SDS011;63946;51.986;5.930;2024-01-15T13:43:01;3.75;;;0.90;;
75356;SDS011;63946;51.986;5.930;2024-01-15T13:45:34;2.47;;;0.95;;
75356;SDS011;63946;51.986;5.930;2024-01-15T13:48:05;2.13;;;1.00;;
75356;SDS011;63946;51.986;5.930;2024-01-15T13:50:35;1.27;;;0.63;;
75356;SDS011;63946;51.986;5.930;2024-01-15T13:53:03;2.63;;;0.90;;
75356;SDS011;63946;51.986;5.930;2024-01-15T13:55:37;6.28;;;1.15;;
75356;SDS011;63946;51.986;5.930;2024-01-15T13:58:06;1.65;;;1.02;;
75356;SDS011;63946;51.986;5.930;2024-01-15T14:00:35;2.22;;;1.10;;
75356;SDS011;63946;51.986;5.930;2024-01-15T14:03:04;4.07;;;1.00;;
75356;SDS011;63946;51.986;5.930;2024-01-15T14:05:33;2.35;;;1.08;;
75356;SDS011;63946;51.986;5.930;2024-01-15T14:08:02;2.60;;;1.05;;
75356;SDS011;63946;51.986;5.930;2024-01-15T14:10:31;4.80;;;1.23;;
75356;SDS011;63946;51.986;5.930;2024-01-15T14:13:00;2.30;;;0.93;;
75356;SDS011;63946;51.986;5.930;2024-01-15T14:15:29;3.60;;;1.38;;
75356;SDS011;63946;51.986;5.930;2024-01-15T14:17:58;7.22;;;1.77;;
75356;SDS011;63946;51.986;5.930;2024-01-15T14:20:29;2.88;;;1.20;;
75356;SDS011;63946;51.986;5.930;2024-01-15T14:22:58;4.65;;;1.15;;
75356;SDS011;63946;51.986;5.930;2024-01-15T14:25:27;2.92;;;1.17;;
75356;SDS011;63946;51.986;5.930;2024-01-15T14:27:56;6.22;;;1.45;;
75356;SDS011;63946;51.986;5.930;2024-01-15T14:30:24;7.50;;;1.58;;
75356;SDS011;63946;51.986;5.930;2024-01-15T14:32:53;4.20;;;1.08;;
75356;SDS011;63946;51.986;5.930;2024-01-15T14:35:22;9.52;;;1.40;;
75356;SDS011;63946;51.986;5.930;2024-01-15T14:37:51;2.22;;;1.05;;
75356;SDS011;63946;51.986;5.930;2024-01-15T14:40:19;1.92;;;1.00;;
75356;SDS011;63946;51.986;5.930;2024-01-15T14:42:48;5.03;;;1.80;;
75356;SDS011;63946;51.986;5.930;2024-01-15T14:45:17;3.55;;;1.02;;
75356;SDS011;63946;51.986;5.930;2024-01-15T14:47:46;6.22;;;1.42;;
75356;SDS011;63946;51.986;5.930;2024-01-15T14:50:15;3.75;;;1.35;;
75356;SDS011;63946;51.986;5.930;2024-01-15T14:52:43;2.35;;;0.93;;
75356;SDS011;63946;51.986;5.930;2024-01-15T14:55:12;4.43;;;1.23;;
75356;SDS011;63946;51.986;5.930;2024-01-15T14:57:41;7.93;;;1.40;;
75356;SDS011;63946;51.986;5.930;2024-01-15T15:00:10;4.85;;;1.30;;
75356;SDS011;63946;51.986;5.930;2024-01-15T15:02:42;4.63;;;1.52;;
75356;SDS011;63946;51.986;5.930;2024-01-15T15:05:11;4.50;;;1.25;;
75356;SDS011;63946;51.986;5.930;2024-01-15T15:07:42;4.47;;;1.40;;
75356;SDS011;63946;51.986;5.930;2024-01-15T15:10:11;4.75;;;1.90;;
75356;SDS011;63946;51.986;5.930;2024-01-15T15:12:40;5.15;;;1.58;;
75356;SDS011;63946;51.986;5.930;2024-01-15T15:15:09;4.40;;;1.38;;
75356;SDS011;63946;51.986;5.930;2024-01-15T15:17:39;6.28;;;1.50;;
75356;SDS011;63946;51.986;5.930;2024-01-15T15:20:08;4.50;;;1.17;;
75356;SDS011;63946;51.986;5.930;2024-01-15T15:22:38;3.33;;;1.15;;
75356;SDS011;63946;51.986;5.930;2024-01-15T15:25:09;2.50;;;1.23;;
75356;SDS011;63946;51.986;5.930;2024-01-15T15:27:37;5.82;;;1.38;;
75356;SDS011;63946;51.986;5.930;2024-01-15T15:30:07;2.83;;;1.35;;
75356;SDS011;63946;51.986;5.930;2024-01-15T15:32:36;3.45;;;1.13;;
75356;SDS011;63946;51.986;5.930;2024-01-15T15:35:05;4.25;;;1.73;;
75356;SDS011;63946;51.986;5.930;2024-01-15T15:37:37;6.38;;;1.63;;
75356;SDS011;63946;51.986;5.930;2024-01-15T15:40:06;6.07;;;1.30;;
75356;SDS011;63946;51.986;5.930;2024-01-15T15:42:39;7.05;;;1.50;;
75356;SDS011;63946;51.986;5.930;2024-01-15T15:45:08;4.55;;;1.88;;
75356;SDS011;63946;51.986;5.930;2024-01-15T15:47:37;7.15;;;1.70;;
75356;SDS011;63946;51.986;5.930;2024-01-15T15:50:08;8.05;;;2.03;;
75356;SDS011;63946;51.986;5.930;2024-01-15T15:52:37;6.28;;;1.70;;
75356;SDS011;63946;51.986;5.930;2024-01-15T15:55:06;6.25;;;1.40;;
75356;SDS011;63946;51.986;5.930;2024-01-15T15:57:36;5.50;;;1.75;;
75356;SDS011;63946;51.986;5.930;2024-01-15T16:00:07;8.95;;;2.55;;
75356;SDS011;63946;51.986;5.930;2024-01-15T16:02:40;3.85;;;2.55;;
75356;SDS011;63946;51.986;5.930;2024-01-15T16:05:09;9.98;;;2.00;;
75356;SDS011;63946;51.986;5.930;2024-01-15T16:07:37;5.70;;;1.33;;
75356;SDS011;63946;51.986;5.930;2024-01-15T16:10:06;8.88;;;1.80;;
75356;SDS011;63946;51.986;5.930;2024-01-15T16:12:35;7.28;;;1.70;;
75356;SDS011;63946;51.986;5.930;2024-01-15T16:15:16;5.68;;;1.83;;
75356;SDS011;63946;51.986;5.930;2024-01-15T16:17:48;8.05;;;2.22;;
75356;SDS011;63946;51.986;5.930;2024-01-15T16:20:18;5.90;;;1.88;;
75356;SDS011;63946;51.986;5.930;2024-01-15T16:22:47;6.95;;;2.72;;
75356;SDS011;63946;51.986;5.930;2024-01-15T16:25:16;7.45;;;1.83;;
75356;SDS011;63946;51.986;5.930;2024-01-15T16:27:45;7.20;;;1.63;;
75356;SDS011;63946;51.986;5.930;2024-01-15T16:30:14;7.35;;;1.77;;
75356;SDS011;63946;51.986;5.930;2024-01-15T16:32:42;6.47;;;1.55;;
75356;SDS011;63946;51.986;5.930;2024-01-15T16:35:11;5.85;;;2.03;;
75356;SDS011;63946;51.986;5.930;2024-01-15T16:37:40;6.65;;;1.55;;
75356;SDS011;63946;51.986;5.930;2024-01-15T16:40:09;5.13;;;1.60;;
75356;SDS011;63946;51.986;5.930;2024-01-15T16:42:38;5.38;;;1.65;;
75356;SDS011;63946;51.986;5.930;2024-01-15T16:45:07;6.22;;;1.63;;
75356;SDS011;63946;51.986;5.930;2024-01-15T16:47:39;6.35;;;1.67;;
75356;SDS011;63946;51.986;5.930;2024-01-15T16:50:12;6.25;;;2.10;;
75356;SDS011;63946;51.986;5.930;2024-01-15T16:52:41;6.40;;;1.50;;
75356;SDS011;63946;51.986;5.930;2024-01-15T16:55:10;6.28;;;1.83;;
75356;SDS011;63946;51.986;5.930;2024-01-15T16:57:39;7.00;;;1.80;;
75356;SDS011;63946;51.986;5.930;2024-01-15T17:00:08;6.00;;;2.45;;
75356;SDS011;63946;51.986;5.930;2024-01-15T17:02:37;5.55;;;1.15;;
75356;SDS011;63946;51.986;5.930;2024-01-15T17:05:06;6.85;;;1.75;;
75356;SDS011;63946;51.986;5.930;2024-01-15T17:07:37;5.43;;;1.67;;
75356;SDS011;63946;51.986;5.930;2024-01-15T17:10:09;4.43;;;1.50;;
75356;SDS011;63946;51.986;5.930;2024-01-15T17:12:39;8.38;;;1.85;;
75356;SDS011;63946;51.986;5.930;2024-01-15T17:15:08;4.20;;;1.38;;
75356;SDS011;63946;51.986;5.930;2024-01-15T17:17:37;4.75;;;1.63;;
75356;SDS011;63946;51.986;5.930;2024-01-15T17:20:07;4.78;;;1.60;;
75356;SDS011;63946;51.986;5.930;2024-01-15T17:22:36;5.97;;;1.42;;
75356;SDS011;63946;51.986;5.930;2024-01-15T17:25:05;2.63;;;1.23;;
75356;SDS011;63946;51.986;5.930;2024-01-15T17:27:36;3.05;;;1.00;;
75356;SDS011;63946;51.986;5.930;2024-01-15T17:30:11;9.48;;;1.90;;
75356;SDS011;63946;51.986;5.930;2024-01-15T17:32:40;1.85;;;1.08;;
75356;SDS011;63946;51.986;5.930;2024-01-15T17:35:09;5.93;;;1.58;;
75356;SDS011;63946;51.986;5.930;2024-01-15T17:37:37;4.68;;;1.27;;
75356;SDS011;63946;51.986;5.930;2024-01-15T17:40:06;4.05;;;1.55;;
75356;SDS011;63946;51.986;5.930;2024-01-15T17:42:36;7.00;;;1.92;;
75356;SDS011;63946;51.986;5.930;2024-01-15T17:45:07;3.40;;;1.77;;
75356;SDS011;63946;51.986;5.930;2024-01-15T17:47:36;3.28;;;1.30;;
75356;SDS011;63946;51.986;5.930;2024-01-15T17:50:08;3.05;;;1.42;;
75356;SDS011;63946;51.986;5.930;2024-01-15T17:52:40;3.97;;;1.55;;
75356;SDS011;63946;51.986;5.930;2024-01-15T17:55:09;5.95;;;1.58;;
75356;SDS011;63946;51.986;5.930;2024-01-15T17:57:38;5.30;;;1.70;;
75356;SDS011;63946;51.986;5.930;2024-01-15T18:00:07;5.43;;;1.98;;
75356;SDS011;63946;51.986;5.930;2024-01-15T18:02:39;9.18;;;2.15;;
75356;SDS011;63946;51.986;5.930;2024-01-15T18:05:08;8.63;;;2.20;;
75356;SDS011;63946;51.986;5.930;2024-01-15T18:07:37;8.07;;;1.80;;
75356;SDS011;63946;51.986;5.930;2024-01-15T18:10:07;4.43;;;1.70;;
75356;SDS011;63946;51.986;5.930;2024-01-15T18:12:40;8.45;;;1.77;;
75356;SDS011;63946;51.986;5.930;2024-01-15T18:15:11;8.73;;;2.42;;
75356;SDS011;63946;51.986;5.930;2024-01-15T18:17:42;8.52;;;2.03;;
75356;SDS011;63946;51.986;5.930;2024-01-15T18:20:12;7.22;;;2.00;;
75356;SDS011;63946;51.986;5.930;2024-01-15T18:22:42;6.40;;;1.65;;
75356;SDS011;63946;51.986;5.930;2024-01-15T18:25:12;9.43;;;2.03;;
75356;SDS011;63946;51.986;5.930;2024-01-15T18:27:41;7.78;;;2.33;;
75356;SDS011;63946;51.986;5.930;2024-01-15T18:30:09;5.13;;;1.70;;
75356;SDS011;63946;51.986;5.930;2024-01-15T18:32:39;6.65;;;1.95;;
75356;SDS011;63946;51.986;5.930;2024-01-15T18:35:08;4.63;;;1.48;;
75356;SDS011;63946;51.986;5.930;2024-01-15T18:37:40;6.75;;;1.70;;
75356;SDS011;63946;51.986;5.930;2024-01-15T18:40:09;5.22;;;1.80;;
75356;SDS011;63946;51.986;5.930;2024-01-15T18:42:39;8.60;;;2.85;;
75356;SDS011;63946;51.986;5.930;2024-01-15T18:45:08;8.45;;;2.15;;
75356;SDS011;63946;51.986;5.930;2024-01-15T18:47:40;8.88;;;2.25;;
75356;SDS011;63946;51.986;5.930;2024-01-15T18:50:10;7.75;;;2.03;;
75356;SDS011;63946;51.986;5.930;2024-01-15T18:52:39;5.22;;;2.03;;
75356;SDS011;63946;51.986;5.930;2024-01-15T18:55:08;6.05;;;2.13;;
75356;SDS011;63946;51.986;5.930;2024-01-15T18:57:42;9.23;;;2.15;;
75356;SDS011;63946;51.986;5.930;2024-01-15T19:00:11;12.65;;;3.00;;
75356;SDS011;63946;51.986;5.930;2024-01-15T19:02:40;6.78;;;2.03;;
75356;SDS011;63946;51.986;5.930;2024-01-15T19:05:09;5.82;;;2.17;;
75356;SDS011;63946;51.986;5.930;2024-01-15T19:07:38;5.47;;;1.83;;
75356;SDS011;63946;51.986;5.930;2024-01-15T19:10:11;6.45;;;2.42;;
75356;SDS011;63946;51.986;5.930;2024-01-15T19:12:42;4.90;;;1.77;;
75356;SDS011;63946;51.986;5.930;2024-01-15T19:15:11;5.78;;;2.08;;
75356;SDS011;63946;51.986;5.930;2024-01-15T19:17:40;5.25;;;1.80;;
75356;SDS011;63946;51.986;5.930;2024-01-15T19:20:13;7.20;;;2.33;;
75356;SDS011;63946;51.986;5.930;2024-01-15T19:22:42;6.15;;;1.80;;
75356;SDS011;63946;51.986;5.930;2024-01-15T19:25:11;5.75;;;1.80;;
75356;SDS011;63946;51.986;5.930;2024-01-15T19:27:41;6.80;;;1.90;;
75356;SDS011;63946;51.986;5.930;2024-01-15T19:30:12;5.65;;;2.30;;
75356;SDS011;63946;51.986;5.930;2024-01-15T19:32:43;6.57;;;2.17;;
75356;SDS011;63946;51.986;5.930;2024-01-15T19:35:12;8.32;;;2.55;;
75356;SDS011;63946;51.986;5.930;2024-01-15T19:37:41;7.47;;;2.13;;
75356;SDS011;63946;51.986;5.930;2024-01-15T19:40:10;9.73;;;2.35;;
75356;SDS011;63946;51.986;5.930;2024-01-15T19:42:40;7.22;;;2.25;;
75356;SDS011;63946;51.986;5.930;2024-01-15T19:45:08;5.55;;;2.28;;
75356;SDS011;63946;51.986;5.930;2024-01-15T19:47:37;7.95;;;2.05;;
75356;SDS011;63946;51.986;5.930;2024-01-15T19:50:09;9.60;;;2.55;;
75356;SDS011;63946;51.986;5.930;2024-01-15T19:52:40;6.07;;;2.45;;
75356;SDS011;63946;51.986;5.930;2024-01-15T19:55:09;8.68;;;3.03;;
75356;SDS011;63946;51.986;5.930;2024-01-15T19:57:38;9.73;;;2.72;;
75356;SDS011;63946;51.986;5.930;2024-01-15T20:00:07;10.50;;;2.17;;
75356;SDS011;63946;51.986;5.930;2024-01-15T20:02:37;7.35;;;2.25;;
75356;SDS011;63946;51.986;5.930;2024-01-15T20:05:07;8.93;;;2.17;;
75356;SDS011;63946;51.986;5.930;2024-01-15T20:07:41;7.50;;;2.90;;
75356;SDS011;63946;51.986;5.930;2024-01-15T20:10:13;7.25;;;2.03;;
75356;SDS011;63946;51.986;5.930;2024-01-15T20:12:41;7.05;;;1.83;;
75356;SDS011;63946;51.986;5.930;2024-01-15T20:15:13;6.97;;;2.92;;
75356;SDS011;63946;51.986;5.930;2024-01-15T20:17:44;8.18;;;2.17;;
75356;SDS011;63946;51.986;5.930;2024-01-15T20:20:13;4.22;;;1.88;;
75356;SDS011;63946;51.986;5.930;2024-01-15T20:22:45;4.68;;;1.50;;
75356;SDS011;63946;51.986;5.930;2024-01-15T20:25:14;9.48;;;2.25;;
75356;SDS011;63946;51.986;5.930;2024-01-15T20:27:43;4.32;;;1.58;;
75356;SDS011;63946;51.986;5.930;2024-01-15T20:30:09;8.98;;;2.05;;
75356;SDS011;63946;51.986;5.930;2024-01-15T20:32:39;9.18;;;2.10;;
75356;SDS011;63946;51.986;5.930;2024-01-15T20:35:08;5.13;;;2.08;;
75356;SDS011;63946;51.986;5.930;2024-01-15T20:37:39;5.47;;;2.22;;
75356;SDS011;63946;51.986;5.930;2024-01-15T20:40:09;5.75;;;1.70;;
75356;SDS011;63946;51.986;5.930;2024-01-15T20:42:42;7.63;;;2.40;;
75356;SDS011;63946;51.986;5.930;2024-01-15T20:45:11;7.30;;;2.33;;
75356;SDS011;63946;51.986;5.930;2024-01-15T20:47:42;4.95;;;2.05;;
75356;SDS011;63946;51.986;5.930;2024-01-15T20:50:11;5.88;;;1.73;;
75356;SDS011;63946;51.986;5.930;2024-01-15T20:52:40;5.35;;;1.70;;
75356;SDS011;63946;51.986;5.930;2024-01-15T20:55:09;9.30;;;2.10;;
75356;SDS011;63946;51.986;5.930;2024-01-15T20:57:39;6.90;;;2.85;;
75356;SDS011;63946;51.986;5.930;2024-01-15T21:00:11;5.80;;;2.63;;
75356;SDS011;63946;51.986;5.930;2024-01-15T21:02:41;7.10;;;2.22;;
75356;SDS011;63946;51.986;5.930;2024-01-15T21:05:10;5.07;;;2.13;;
75356;SDS011;63946;51.986;5.930;2024-01-15T21:07:39;6.32;;;2.45;;
75356;SDS011;63946;51.986;5.930;2024-01-15T21:10:08;7.15;;;2.17;;
75356;SDS011;63946;51.986;5.930;2024-01-15T21:12:39;6.95;;;2.10;;